Terminal Aerodrome Forecast
Issued by NWS Grand Rapids, MI

Home | Current Version | Previous Version | Text Only | Print | Product List | Glossary On
Versions: 1 2 3 4 5 6 7 8 9 10 11 12 13 14 15 16 17 18 19 20 21 22 23 24 25 26 27
000
FTUS43 KGRR 211005 AAC
TAFGRR
TAF AMD
KGRR 211005Z 2110/2206 09005KT 2SM BR BKN003 OVC015
     FM211100 14005KT 5SM BR FEW015 BKN050
     FM211600 16006KT 6SM BR BKN060
     FM212100 15009KT P6SM BKN250=

USA.gov is the U.S. government's official web portal to all federal, state and local government web resources and services.